createdAt,value
2019-05-14T00:01:42.192Z,3.20
2019-05-14T00:04:11.705Z,3.00
2019-05-14T00:06:41.739Z,2.80
2019-05-14T00:09:12.119Z,2.70
2019-05-14T00:11:42.220Z,2.90
2019-05-14T00:14:11.811Z,2.80
2019-05-14T00:16:42.431Z,3.33
2019-05-14T00:19:11.896Z,3.20
2019-05-14T00:21:42.415Z,2.93
2019-05-14T00:24:32.142Z,2.90
2019-05-14T00:27:02.066Z,3.13
2019-05-14T00:29:32.168Z,3.03
2019-05-14T00:32:02.001Z,2.73
2019-05-14T00:34:31.617Z,3.30
2019-05-14T00:37:01.532Z,3.07
2019-05-14T00:39:32.008Z,3.13
2019-05-14T00:42:01.769Z,2.70
2019-05-14T00:44:32.378Z,2.93
2019-05-14T00:47:02.260Z,2.60
2019-05-14T00:49:31.773Z,2.50
2019-05-14T00:52:02.366Z,2.77
2019-05-14T00:54:32.242Z,3.00
2019-05-14T00:57:01.710Z,3.10
2019-05-14T00:59:32.199Z,3.00
2019-05-14T01:02:03.113Z,3.13
2019-05-14T01:04:32.493Z,2.97
2019-05-14T01:07:01.783Z,2.90
2019-05-14T01:09:31.572Z,2.80
2019-05-14T01:12:01.881Z,2.77
2019-05-14T01:14:31.695Z,3.00
2019-05-14T01:17:01.988Z,2.80
2019-05-14T01:19:31.691Z,2.57
2019-05-14T01:22:01.682Z,2.80
2019-05-14T01:24:32.173Z,2.63
2019-05-14T01:27:01.813Z,2.83
2019-05-14T01:29:31.796Z,2.70
2019-05-14T01:32:01.365Z,2.97
2019-05-14T01:34:32.397Z,2.80
2019-05-14T01:37:02.452Z,2.20
2019-05-14T01:39:32.324Z,2.43
2019-05-14T01:42:02.428Z,2.77
2019-05-14T01:44:32.012Z,3.70
2019-05-14T01:47:01.936Z,2.97
2019-05-14T01:49:31.873Z,3.07
2019-05-14T01:52:01.790Z,3.20
2019-05-14T01:54:31.752Z,3.00
2019-05-14T01:57:02.072Z,3.10
2019-05-14T01:59:32.355Z,2.73
2019-05-14T02:02:02.384Z,3.77
2019-05-14T02:04:31.928Z,3.43
2019-05-14T02:07:02.302Z,3.50
2019-05-14T02:09:32.007Z,3.13
2019-05-14T02:12:02.168Z,3.10
2019-05-14T02:14:31.609Z,3.50
2019-05-14T02:17:01.907Z,3.90
2019-05-14T02:19:31.844Z,3.63
2019-05-14T02:22:02.176Z,3.43
2019-05-14T02:24:32.153Z,3.80
2019-05-14T02:27:01.997Z,3.77
2019-05-14T02:29:32.076Z,3.63
2019-05-14T02:32:01.446Z,3.57
2019-05-14T02:34:30.607Z,3.33
2019-05-14T02:37:00.560Z,3.53
2019-05-14T02:39:29.903Z,3.33
2019-05-14T02:41:59.165Z,3.40
2019-05-14T02:44:29.759Z,3.33
2019-05-14T02:46:59.761Z,3.37
2019-05-14T02:49:30.906Z,3.23
2019-05-14T02:52:00.068Z,3.53
2019-05-14T02:54:29.936Z,3.37
2019-05-14T02:57:00.058Z,3.73
2019-05-14T02:59:30.498Z,3.43
2019-05-14T03:02:00.098Z,3.47
2019-05-14T03:04:30.047Z,3.97
2019-05-14T03:07:00.860Z,3.17
2019-05-14T03:09:30.139Z,3.00
2019-05-14T03:11:59.748Z,3.90
2019-05-14T03:14:30.125Z,3.97
2019-05-14T03:16:59.816Z,3.43
2019-05-14T03:19:29.746Z,3.57
2019-05-14T03:22:00.203Z,3.97
2019-05-14T03:24:29.809Z,3.20
2019-05-14T03:26:59.041Z,3.53
2019-05-14T03:29:30.835Z,3.23
2019-05-14T03:32:03.269Z,3.60
2019-05-14T03:34:33.190Z,3.33
2019-05-14T03:37:03.796Z,3.10
2019-05-14T03:39:32.655Z,3.63
2019-05-14T03:42:02.110Z,3.53
2019-05-14T03:44:31.369Z,3.27
2019-05-14T03:47:05.009Z,4.33
2019-05-14T03:49:31.543Z,3.57
2019-05-14T03:52:00.800Z,3.40
2019-05-14T03:54:30.241Z,3.40
2019-05-14T03:57:00.296Z,3.53
2019-05-14T03:59:29.904Z,3.00
2019-05-14T04:01:59.895Z,3.50
2019-05-14T04:04:30.018Z,3.57
2019-05-14T04:07:01.859Z,3.27
2019-05-14T04:09:33.583Z,3.80
2019-05-14T04:12:04.393Z,3.83
2019-05-14T04:14:36.115Z,3.50
2019-05-14T04:17:11.083Z,3.27
2019-05-14T04:19:40.808Z,3.77
2019-05-14T04:22:13.596Z,3.50
2019-05-14T04:24:43.497Z,3.30
2019-05-14T04:27:15.866Z,4.00
2019-05-14T04:29:49.600Z,3.30
2019-05-14T04:32:20.400Z,3.90
2019-05-14T04:34:50.671Z,3.63
2019-05-14T04:37:20.367Z,3.20
2019-05-14T04:39:50.477Z,3.80
2019-05-14T04:42:20.502Z,4.20
2019-05-14T04:44:50.689Z,3.70
2019-05-14T04:47:31.573Z,3.57
2019-05-14T04:49:50.994Z,4.13
2019-05-14T04:52:20.777Z,4.47
2019-05-14T04:54:50.368Z,3.50
2019-05-14T04:57:22.657Z,4.13
2019-05-14T04:59:50.689Z,4.00
2019-05-14T05:02:20.163Z,4.37
2019-05-14T05:04:50.686Z,5.03
2019-05-14T05:07:20.354Z,4.13
2019-05-14T05:09:50.368Z,4.90
2019-05-14T05:12:19.960Z,4.07
2019-05-14T05:14:49.483Z,4.17
2019-05-14T05:17:19.663Z,3.93
2019-05-14T05:19:51.645Z,4.20
2019-05-14T05:22:19.922Z,4.17
2019-05-14T05:24:49.121Z,3.70
2019-05-14T05:27:18.625Z,4.50
2019-05-14T05:29:48.607Z,4.10
2019-05-14T05:32:19.374Z,4.33
2019-05-14T05:34:49.830Z,4.50
2019-05-14T05:37:19.747Z,3.30
2019-05-14T05:39:49.283Z,4.60
2019-05-14T05:42:18.992Z,4.43
2019-05-14T05:44:48.518Z,4.50
2019-05-14T05:47:18.487Z,3.93
2019-05-14T05:49:48.767Z,4.07
2019-05-14T05:52:19.083Z,5.03
2019-05-14T05:54:48.975Z,3.97
2019-05-14T05:57:18.871Z,4.27
2019-05-14T05:59:48.667Z,4.30
2019-05-14T06:02:18.561Z,4.47
2019-05-14T06:04:50.409Z,3.90
2019-05-14T06:07:19.619Z,3.60
2019-05-14T06:09:48.797Z,4.37
2019-05-14T06:12:18.980Z,4.40
2019-05-14T06:14:48.890Z,4.30
2019-05-14T06:17:19.218Z,4.37
2019-05-14T06:19:48.857Z,4.57
2019-05-14T06:22:18.915Z,3.70
2019-05-14T06:24:48.769Z,4.27
2019-05-14T06:27:18.323Z,4.30
2019-05-14T06:29:48.944Z,4.20
2019-05-14T06:32:18.787Z,4.17
2019-05-14T06:34:48.917Z,3.77
2019-05-14T06:37:19.109Z,4.90
2019-05-14T06:39:48.687Z,4.77
2019-05-14T06:42:19.262Z,3.90
2019-05-14T06:44:49.369Z,4.07
2019-05-14T06:47:18.665Z,3.93
2019-05-14T06:49:48.779Z,4.00
2019-05-14T06:52:18.995Z,4.20
2019-05-14T06:54:49.683Z,3.77
2019-05-14T06:57:19.052Z,3.77
2019-05-14T06:59:48.554Z,3.00
2019-05-14T07:02:19.354Z,2.30
2019-05-14T07:04:48.853Z,3.00
2019-05-14T07:07:20.660Z,2.80
2019-05-14T07:09:49.039Z,2.80
2019-05-14T07:12:19.155Z,2.90
2019-05-14T07:14:48.562Z,2.63
2019-05-14T07:17:18.368Z,3.07
2019-05-14T07:19:49.062Z,2.73
2019-05-14T07:22:19.555Z,2.83
2019-05-14T07:24:49.846Z,2.90
2019-05-14T07:27:19.454Z,2.80
2019-05-14T07:29:49.325Z,2.90
2019-05-14T07:32:19.306Z,3.27
2019-05-14T07:34:48.625Z,3.23
2019-05-14T07:37:18.188Z,3.17
2019-05-14T07:39:48.671Z,2.90
2019-05-14T07:42:18.429Z,2.80
2019-05-14T07:44:48.546Z,3.40
2019-05-14T07:47:18.744Z,3.10
2019-05-14T07:49:48.954Z,3.27
2019-05-14T07:52:19.695Z,3.73
2019-05-14T07:54:49.220Z,3.30
2019-05-14T07:57:19.113Z,3.40
2019-05-14T07:59:48.641Z,3.43
2019-05-14T08:02:19.593Z,3.80
2019-05-14T08:04:48.910Z,4.17
2019-05-14T08:07:18.157Z,3.50
2019-05-14T08:09:48.037Z,3.63
2019-05-14T08:12:19.267Z,3.23
2019-05-14T08:15:02.164Z,2.90
2019-05-14T08:17:19.471Z,3.53
2019-05-14T08:19:49.320Z,2.57
2019-05-14T08:22:18.812Z,3.07
2019-05-14T08:24:49.102Z,3.00
2019-05-14T08:27:19.237Z,3.07
2019-05-14T08:29:48.962Z,3.20
2019-05-14T08:32:19.082Z,3.00
2019-05-14T08:34:48.607Z,3.20
2019-05-14T08:37:19.092Z,3.27
2019-05-14T08:39:48.889Z,3.17
2019-05-14T08:42:18.779Z,3.40
2019-05-14T08:44:51.223Z,3.10
2019-05-14T08:47:19.142Z,2.90
2019-05-14T08:49:50.692Z,3.07
2019-05-14T08:52:19.560Z,3.40
2019-05-14T08:54:53.693Z,2.77
2019-05-14T08:57:20.056Z,3.10
2019-05-14T08:59:49.396Z,2.80
2019-05-14T09:02:19.631Z,3.23
2019-05-14T09:04:54.322Z,2.50
2019-05-14T09:07:19.917Z,2.83
2019-05-14T09:09:49.094Z,2.77
2019-05-14T09:12:18.743Z,2.67
2019-05-14T09:14:48.515Z,2.30
2019-05-14T09:17:18.545Z,2.83
2019-05-14T09:20:01.725Z,2.43
2019-05-14T09:22:18.909Z,2.90
2019-05-14T09:24:49.204Z,3.40
2019-05-14T09:27:19.229Z,2.70
2019-05-14T09:29:48.750Z,2.73
2019-05-14T09:32:19.026Z,3.00
2019-05-14T09:34:48.870Z,3.43
2019-05-14T09:37:19.222Z,2.97
2019-05-14T09:39:48.936Z,2.70
2019-05-14T09:42:19.489Z,3.20
2019-05-14T09:44:49.271Z,2.77
2019-05-14T09:47:19.054Z,2.73
2019-05-14T09:49:49.091Z,2.77
2019-05-14T09:52:18.797Z,3.03
2019-05-14T09:54:49.606Z,3.40
2019-05-14T09:57:19.104Z,2.87
2019-05-14T09:59:48.227Z,3.57
2019-05-14T10:02:17.424Z,3.30
2019-05-14T10:04:49.063Z,2.90
2019-05-14T10:07:17.471Z,3.17
2019-05-14T10:09:49.060Z,3.00
2019-05-14T10:12:17.580Z,3.00
2019-05-14T10:14:48.710Z,3.20
2019-05-14T10:17:19.406Z,3.07
2019-05-14T10:19:49.863Z,2.77
2019-05-14T10:22:19.968Z,2.90
2019-05-14T10:24:49.371Z,3.40
2019-05-14T10:27:19.045Z,3.30
2019-05-14T10:29:48.369Z,3.33
2019-05-14T10:32:18.714Z,3.20
2019-05-14T10:34:48.590Z,2.70
2019-05-14T10:37:19.167Z,3.07
2019-05-14T10:39:48.496Z,3.00
2019-05-14T10:42:20.162Z,2.97
2019-05-14T10:44:48.509Z,2.77
2019-05-14T10:47:18.765Z,3.00
2019-05-14T10:49:48.245Z,3.10
2019-05-14T10:52:19.697Z,3.17
2019-05-14T10:54:55.778Z,2.97
2019-05-14T10:57:19.186Z,2.57
2019-05-14T10:59:48.418Z,3.23
2019-05-14T11:02:18.556Z,2.90
2019-05-14T11:04:48.401Z,3.40
2019-05-14T11:07:18.558Z,3.40
2019-05-14T11:09:48.607Z,2.63
2019-05-14T11:12:19.325Z,3.37
2019-05-14T11:14:49.348Z,2.80
2019-05-14T11:17:19.590Z,3.17
2019-05-14T11:19:49.014Z,2.93
2019-05-14T11:22:18.517Z,2.90
2019-05-14T11:24:49.207Z,2.87
2019-05-14T11:27:18.782Z,3.00
2019-05-14T11:29:49.141Z,2.97
2019-05-14T11:32:18.628Z,3.07
2019-05-14T11:34:47.848Z,3.30
2019-05-14T11:37:18.705Z,3.07
2019-05-14T11:39:48.697Z,2.57
2019-05-14T11:42:19.879Z,2.70
2019-05-14T11:44:48.967Z,2.93
2019-05-14T11:47:18.267Z,3.10
2019-05-14T11:49:49.195Z,2.90
2019-05-14T11:52:18.292Z,3.33
2019-05-14T11:54:49.391Z,3.50
2019-05-14T11:57:19.286Z,3.07
2019-05-14T11:59:49.030Z,3.47
2019-05-14T12:02:18.906Z,3.20
2019-05-14T12:04:48.323Z,3.00
2019-05-14T12:07:18.670Z,3.10
2019-05-14T12:09:47.961Z,3.00
2019-05-14T12:12:19.007Z,3.10
2019-05-14T12:14:48.484Z,3.07
2019-05-14T12:17:17.820Z,3.13
2019-05-14T12:19:48.456Z,3.13
2019-05-14T12:22:19.052Z,2.63
2019-05-14T12:24:49.408Z,3.03
2019-05-14T12:27:19.261Z,2.73
2019-05-14T12:29:49.741Z,3.40
2019-05-14T12:32:19.415Z,3.20
2019-05-14T12:34:48.993Z,2.87
2019-05-14T12:37:18.733Z,3.00
2019-05-14T12:39:48.002Z,3.30
2019-05-14T12:42:19.374Z,3.23
2019-05-14T12:44:48.093Z,3.67
2019-05-14T12:47:18.824Z,2.83
2019-05-14T12:49:49.067Z,2.60
2019-05-14T12:52:25.447Z,3.10
2019-05-14T12:54:50.267Z,3.77
2019-05-14T12:57:19.592Z,3.53
2019-05-14T12:59:48.834Z,3.10
2019-05-14T13:02:18.749Z,3.17
2019-05-14T13:04:48.716Z,3.40
2019-05-14T13:07:19.231Z,3.70
2019-05-14T13:09:49.121Z,3.77
2019-05-14T13:12:19.064Z,3.73
2019-05-14T13:14:49.028Z,3.73
2019-05-14T13:17:18.826Z,3.90
2019-05-14T13:19:48.800Z,3.60
2019-05-14T13:22:25.641Z,3.70
2019-05-14T13:24:49.433Z,3.50
2019-05-14T13:27:19.189Z,3.60
2019-05-14T13:29:48.936Z,4.27
2019-05-14T13:32:19.579Z,3.77
2019-05-14T13:34:48.979Z,3.73
2019-05-14T13:37:18.273Z,3.53
2019-05-14T13:39:52.828Z,3.83
2019-05-14T13:42:18.754Z,3.43
2019-05-14T13:44:48.114Z,3.27
2019-05-14T13:47:18.215Z,3.43
2019-05-14T13:49:48.706Z,3.83
2019-05-14T13:52:18.677Z,4.77
2019-05-14T13:54:48.284Z,3.93
2019-05-14T13:57:19.385Z,4.27
2019-05-14T13:59:51.195Z,4.20
2019-05-14T14:02:20.374Z,3.57
2019-05-14T14:04:49.556Z,4.67
2019-05-14T14:07:19.084Z,3.90
2019-05-14T14:09:49.858Z,4.60
2019-05-14T14:12:19.161Z,4.23
2019-05-14T14:14:49.306Z,4.10
2019-05-14T14:17:18.800Z,4.53
2019-05-14T14:19:48.393Z,4.47
2019-05-14T14:22:19.533Z,4.73
2019-05-14T14:24:48.812Z,4.30
2019-05-14T14:27:19.652Z,4.70
2019-05-14T14:29:49.414Z,4.50
2019-05-14T14:32:19.071Z,4.87
2019-05-14T14:34:48.355Z,4.27
2019-05-14T14:37:19.242Z,4.73
2019-05-14T14:39:48.951Z,4.10
2019-05-14T14:42:19.582Z,4.40
2019-05-14T14:44:48.940Z,4.30
2019-05-14T14:47:19.064Z,4.07
2019-05-14T14:49:51.654Z,4.40
2019-05-14T14:52:20.118Z,4.10
2019-05-14T14:54:49.459Z,4.80
2019-05-14T14:57:19.954Z,4.03
2019-05-14T14:59:49.522Z,4.90
2019-05-14T15:02:19.690Z,4.37
2019-05-14T15:04:50.044Z,4.60
2019-05-14T15:07:19.500Z,3.97
2019-05-14T15:09:48.961Z,4.40
2019-05-14T15:12:19.984Z,4.20
2019-05-14T15:14:48.991Z,4.20
2019-05-14T15:17:18.722Z,4.13
2019-05-14T15:19:49.955Z,4.40
2019-05-14T15:22:21.339Z,3.87
2019-05-14T15:24:50.495Z,3.87
2019-05-14T15:27:19.680Z,4.27
2019-05-14T15:29:49.025Z,4.27
2019-05-14T15:32:19.635Z,4.27
2019-05-14T15:34:50.623Z,4.47
2019-05-14T15:37:22.164Z,4.53
2019-05-14T15:39:58.775Z,4.33
2019-05-14T15:42:28.475Z,4.23
2019-05-14T15:44:59.777Z,4.33
2019-05-14T15:47:29.705Z,4.30
2019-05-14T15:49:59.549Z,4.10
2019-05-14T15:52:29.399Z,4.33
2019-05-14T15:54:58.675Z,4.40
2019-05-14T15:57:28.840Z,4.07
2019-05-14T16:00:00.837Z,4.47
2019-05-14T16:02:29.804Z,4.63
2019-05-14T16:04:59.306Z,4.13
2019-05-14T16:07:29.339Z,4.27
2019-05-14T16:10:00.977Z,4.37
2019-05-14T16:12:32.244Z,4.60
2019-05-14T16:15:00.436Z,4.57
2019-05-14T16:17:30.371Z,4.33
2019-05-14T16:19:59.985Z,5.53
2019-05-14T16:22:29.998Z,4.93
2019-05-14T16:25:00.991Z,4.10
2019-05-14T16:27:30.078Z,4.13
2019-05-14T16:29:59.261Z,4.10
2019-05-14T16:32:28.588Z,4.20
2019-05-14T16:34:58.112Z,5.00
2019-05-14T16:37:28.230Z,4.50
2019-05-14T16:39:57.489Z,4.90
2019-05-14T16:42:29.176Z,4.40
2019-05-14T16:44:57.565Z,4.40
2019-05-14T16:47:28.784Z,3.97
2019-05-14T16:49:59.109Z,4.33
2019-05-14T16:52:28.761Z,4.20
2019-05-14T16:55:16.978Z,4.13
2019-05-14T16:57:29.412Z,3.67
2019-05-14T16:59:58.713Z,4.20
2019-05-14T17:02:29.616Z,3.97
2019-05-14T17:04:59.125Z,3.57
2019-05-14T17:07:28.857Z,4.00
2019-05-14T17:09:58.519Z,4.07
2019-05-14T17:12:30.793Z,3.80
2019-05-14T17:14:58.778Z,3.93
2019-05-14T17:17:27.965Z,4.03
2019-05-14T17:19:58.745Z,4.27
2019-05-14T17:22:33.227Z,4.00
2019-05-14T17:24:58.980Z,4.33
2019-05-14T17:27:28.704Z,4.10
2019-05-14T17:29:59.002Z,3.63
2019-05-14T17:32:30.347Z,3.83
2019-05-14T17:34:59.188Z,4.40
2019-05-14T17:37:28.640Z,3.70
2019-05-14T17:39:58.253Z,3.23
2019-05-14T17:42:28.510Z,3.93
2019-05-14T17:44:58.901Z,4.03
2019-05-14T17:47:29.063Z,3.60
2019-05-14T17:49:59.033Z,3.97
2019-05-14T17:52:30.273Z,3.57
2019-05-14T17:54:59.517Z,3.83
2019-05-14T17:57:35.019Z,3.83
2019-05-14T17:59:59.599Z,3.80
2019-05-14T18:02:28.873Z,3.50
2019-05-14T18:04:59.334Z,3.47
2019-05-14T18:07:28.716Z,3.40
2019-05-14T18:09:58.873Z,3.37
2019-05-14T18:12:30.551Z,4.03
2019-05-14T18:14:59.013Z,3.50
2019-05-14T18:17:29.780Z,3.10
2019-05-14T18:19:58.991Z,3.47
2019-05-14T18:22:28.757Z,3.67
2019-05-14T18:24:59.248Z,4.23
2019-05-14T18:27:29.279Z,3.53
2019-05-14T18:29:59.315Z,3.20
2019-05-14T18:32:28.578Z,3.93
2019-05-14T18:34:58.249Z,4.00
2019-05-14T18:37:29.002Z,3.73
2019-05-14T18:39:58.615Z,3.50
2019-05-14T18:42:29.677Z,3.53
2019-05-14T18:44:59.071Z,3.40
2019-05-14T18:47:29.101Z,3.60
2019-05-14T18:49:59.571Z,3.53
2019-05-14T18:52:30.777Z,3.33
2019-05-14T18:54:59.980Z,3.27
2019-05-14T18:57:29.221Z,3.80
2019-05-14T18:59:58.440Z,4.43
2019-05-14T19:02:29.319Z,3.70
2019-05-14T19:04:58.499Z,3.80
2019-05-14T19:07:28.671Z,3.70
2019-05-14T19:09:58.799Z,3.30
2019-05-14T19:12:28.927Z,3.30
2019-05-14T19:14:58.961Z,3.40
2019-05-14T19:17:28.559Z,3.50
2019-05-14T19:19:58.900Z,3.57
2019-05-14T19:22:28.847Z,4.03
2019-05-14T19:24:58.789Z,3.97
2019-05-14T19:27:28.583Z,3.43
2019-05-14T19:29:59.491Z,4.43
2019-05-14T19:32:28.899Z,3.77
2019-05-14T19:34:58.075Z,4.30
2019-05-14T19:37:29.056Z,4.20
2019-05-14T19:39:58.787Z,4.67
2019-05-14T19:42:28.792Z,4.40
2019-05-14T19:44:59.795Z,4.30
2019-05-14T19:47:29.057Z,4.40
2019-05-14T19:49:58.249Z,5.20
2019-05-14T19:52:30.518Z,4.47
2019-05-14T19:54:59.711Z,4.30
2019-05-14T19:57:29.155Z,4.27
2019-05-14T19:59:58.374Z,5.13
2019-05-14T20:02:28.690Z,4.77
2019-05-14T20:04:58.824Z,4.50
2019-05-14T20:07:28.095Z,4.60
2019-05-14T20:09:58.791Z,4.20
2019-05-14T20:12:28.762Z,4.37
2019-05-14T20:14:58.422Z,4.70
2019-05-14T20:17:28.314Z,4.70
2019-05-14T20:19:57.967Z,4.50
2019-05-14T20:22:28.366Z,4.40
2019-05-14T20:24:58.906Z,4.10
2019-05-14T20:27:28.342Z,3.97
2019-05-14T20:29:58.083Z,4.93
2019-05-14T20:32:27.351Z,4.03
2019-05-14T20:34:58.058Z,4.50
2019-05-14T20:37:29.119Z,4.13
2019-05-14T20:39:59.081Z,4.60
2019-05-14T20:42:29.005Z,5.40
2019-05-14T20:44:58.257Z,4.67
2019-05-14T20:47:28.208Z,4.60
2019-05-14T20:49:58.025Z,4.90
2019-05-14T20:52:28.378Z,4.40
2019-05-14T20:54:58.334Z,5.27
2019-05-14T20:57:32.746Z,4.53
2019-05-14T20:59:58.889Z,4.93
2019-05-14T21:02:29.526Z,4.30
2019-05-14T21:05:04.328Z,4.77
2019-05-14T21:07:29.760Z,4.33
2019-05-14T21:09:58.967Z,4.60
2019-05-14T21:12:28.946Z,4.70
2019-05-14T21:14:59.100Z,4.57
2019-05-14T21:17:28.472Z,4.53
2019-05-14T21:19:57.679Z,4.73
2019-05-14T21:22:29.065Z,5.07
2019-05-14T21:24:58.840Z,4.60
2019-05-14T21:27:41.274Z,4.23
2019-05-14T21:29:58.952Z,4.60
2019-05-14T21:32:28.415Z,4.37
2019-05-14T21:34:58.513Z,4.27
2019-05-14T21:37:28.401Z,4.17
2019-05-14T21:39:58.315Z,4.47
2019-05-14T21:42:28.550Z,4.70
2019-05-14T21:44:58.421Z,4.40
2019-05-14T21:47:28.573Z,4.30
2019-05-14T21:49:58.200Z,5.13
2019-05-14T21:52:28.987Z,4.63
2019-05-14T21:54:58.670Z,4.50
2019-05-14T21:57:28.396Z,4.23
2019-05-14T21:59:58.844Z,4.30
2019-05-14T22:02:30.639Z,4.43
2019-05-14T22:05:01.505Z,4.53
2019-05-14T22:07:32.005Z,4.63
2019-05-14T22:10:01.230Z,4.63
2019-05-14T22:12:30.395Z,4.20
2019-05-14T22:14:59.611Z,4.90
2019-05-14T22:17:31.747Z,4.20
2019-05-14T22:20:00.969Z,4.30
2019-05-14T22:22:30.818Z,4.60
2019-05-14T22:25:00.162Z,4.50
2019-05-14T22:27:29.291Z,4.60
2019-05-14T22:29:59.477Z,4.73
2019-05-14T22:32:28.781Z,4.80
2019-05-14T22:34:59.002Z,4.53
2019-05-14T22:37:28.208Z,4.20
2019-05-14T22:39:59.033Z,4.90
2019-05-14T22:42:28.351Z,4.20
2019-05-14T22:44:58.296Z,4.43
2019-05-14T22:47:27.687Z,4.33
2019-05-14T22:49:59.135Z,4.37
2019-05-14T22:52:28.397Z,4.50
2019-05-14T22:54:59.754Z,4.40
2019-05-14T22:57:31.124Z,5.03
2019-05-14T22:59:59.864Z,4.70
2019-05-14T23:02:29.084Z,4.90
2019-05-14T23:04:58.572Z,4.30
2019-05-14T23:07:27.793Z,4.10
2019-05-14T23:09:59.004Z,4.73
2019-05-14T23:12:28.729Z,4.90
2019-05-14T23:14:58.190Z,4.43
2019-05-14T23:17:28.081Z,4.80
2019-05-14T23:19:58.056Z,4.33
2019-05-14T23:22:29.561Z,4.63
2019-05-14T23:24:59.181Z,5.23
2019-05-14T23:27:48.158Z,4.50
2019-05-14T23:30:20.715Z,4.00
2019-05-14T23:32:50.002Z,4.60
2019-05-14T23:35:19.327Z,4.70
2019-05-14T23:37:49.184Z,4.67
2019-05-14T23:40:18.430Z,4.40
2019-05-14T23:42:49.045Z,4.93
2019-05-14T23:45:18.981Z,4.63
2019-05-14T23:47:49.268Z,4.80
2019-05-14T23:50:18.699Z,4.17
2019-05-14T23:52:49.303Z,4.27
2019-05-14T23:55:18.801Z,4.43
2019-05-14T23:57:48.342Z,4.27
